Time;durP1;ratioP1;P1;durP2;ratioP2;P2;SDS_P1;SDS_P2;PMS_P1;PMS_P2;Temp;Humidity;BMP_temperature;BMP_pressure;BME280_temperature;BME280_humidity;BME280_pressure;Samples;Min_cycle;Max_cycle;Signal;HPM_P1;HPM_P2
2022/07/23 00:02:25;;;;;;;;;;;;;;;24.11;47.95;100809.00;7415532;19;1561;-56
2022/07/23 00:04:56;;;;;;;;;;;;;;;24.05;48.24;100815.94;7417425;19;1550;-56
2022/07/23 00:07:24;;;;;;;;;;;;;;;24.02;48.26;100818.97;7416814;19;1901;-57
2022/07/23 00:09:53;;;;;;;;;;;;;;;23.94;48.37;100835.19;7418428;19;982;-56
2022/07/23 00:12:21;;;;;;;;;;;;;;;23.96;48.49;100838.56;7416975;19;1651;-59
2022/07/23 00:14:49;;;;;;;;;;;;;;;23.99;48.57;100838.22;7416125;19;1755;-58
2022/07/23 00:17:17;;;;;;;;;;;;;;;23.95;48.47;100831.44;7417702;19;1637;-58
2022/07/23 00:19:46;;;;;;;;;;;;;;;23.88;48.74;100843.94;7416467;19;1866;-58
2022/07/23 00:22:16;;;;;;;;;;;;;;;23.54;49.14;100853.78;7416172;19;1881;-58
2022/07/23 00:24:45;;;;;;;;;;;;;;;23.68;48.60;100844.22;7416372;19;1664;-58
2022/07/23 00:27:13;;;;;;;;;;;;;;;23.88;48.15;100844.78;7416443;19;1790;-59
2022/07/23 00:29:41;;;;;;;;;;;;;;;23.87;48.57;100832.28;7409390;19;1392;-58
2022/07/23 00:32:09;;;;;;;;;;;;;;;23.85;48.63;100844.28;7410295;19;1633;-58
2022/07/23 00:34:38;;;;;;;;;;;;;;;23.89;48.34;100848.31;7408576;19;1616;-58
2022/07/23 00:37:06;;;;;;;;;;;;;;;23.90;48.29;100844.63;7408676;19;1648;-58
2022/07/23 00:39:37;;;;;;;;;;;;;;;23.94;48.56;100832.47;7408622;19;1648;-58
2022/07/23 00:42:05;;;;;;;;;;;;;;;23.91;48.58;100847.13;7406690;19;1847;-58
2022/07/23 00:44:33;;;;;;;;;;;;;;;23.95;48.67;100831.44;7409922;19;1546;-58
2022/07/23 00:47:02;;;;;;;;;;;;;;;23.85;48.44;100846.97;7409954;19;1734;-59
2022/07/23 00:49:31;;;;;;;;;;;;;;;23.79;48.75;100843.06;7407635;19;1659;-58
2022/07/23 00:52:03;;;;;;;;;;;;;;;23.78;48.63;100839.53;7408897;19;1654;-59
2022/07/23 00:54:31;;;;;;;;;;;;;;;23.85;48.57;100841.56;7408628;19;1658;-58
2022/07/23 00:57:02;;;;;;;;;;;;;;;23.79;48.74;100835.81;7405258;19;1676;-60
2022/07/23 00:59:30;;;;;;;;;;;;;;;23.90;48.62;100831.13;7409133;19;1356;-59
2022/07/23 01:01:59;;;;;;;;;;;;;;;23.83;48.77;100833.63;7405673;19;1859;-59
2022/07/23 01:04:27;;;;;;;;;;;;;;;23.76;48.54;100822.63;7408718;19;1888;-58
2022/07/23 01:06:55;;;;;;;;;;;;;;;23.84;48.72;100829.09;7408783;19;1692;-59
2022/07/23 01:09:23;;;;;;;;;;;;;;;23.81;48.91;100835.66;7408375;19;1665;-58
2022/07/23 01:11:53;;;;;;;;;;;;;;;23.79;48.72;100825.00;7407005;19;1700;-58
2022/07/23 01:14:24;;;;;;;;;;;;;;;23.78;49.01;100834.13;7407804;19;1621;-57
2022/07/23 01:16:53;;;;;;;;;;;;;;;23.79;48.87;100830.41;7408690;19;1648;-57
2022/07/23 01:19:21;;;;;;;;;;;;;;;23.74;48.93;100827.34;7408503;19;1550;-57
2022/07/23 01:21:50;;;;;;;;;;;;;;;23.69;48.68;100820.75;7406260;19;1863;-58
2022/07/23 01:24:21;;;;;;;;;;;;;;;23.68;48.76;100825.31;7408458;19;1557;-58
2022/07/23 01:26:50;;;;;;;;;;;;;;;23.54;49.17;100825.94;7406808;19;1792;-58
2022/07/23 01:29:20;;;;;;;;;;;;;;;23.63;48.72;100827.63;7407953;19;1586;-58
2022/07/23 01:31:49;;;;;;;;;;;;;;;23.75;48.62;100829.00;7406851;19;1695;-58
2022/07/23 01:34:17;;;;;;;;;;;;;;;23.73;48.67;100828.34;7406949;19;1721;-57
2022/07/23 01:36:46;;;;;;;;;;;;;;;23.64;49.02;100818.56;7407206;19;1574;-57
2022/07/23 01:39:15;;;;;;;;;;;;;;;23.71;49.04;100837.63;7407877;19;1568;-57
2022/07/23 01:41:46;;;;;;;;;;;;;;;23.70;48.98;100844.88;7405057;19;1858;-57
2022/07/23 01:44:15;;;;;;;;;;;;;;;23.70;48.67;100817.06;7407336;19;1518;-57
2022/07/23 01:46:43;;;;;;;;;;;;;;;23.73;48.43;100822.09;7406457;19;1790;-58
2022/07/23 01:49:12;;;;;;;;;;;;;;;23.76;48.81;100836.13;7406898;19;1613;-56
2022/07/23 01:51:59;;;;;;;;;;;;;;;23.73;48.21;100832.91;7406616;19;1903;-57
2022/07/23 01:54:27;;;;;;;;;;;;;;;23.72;48.44;100834.75;7405977;19;1621;-57
2022/07/23 01:56:58;;;;;;;;;;;;;;;23.72;48.45;100815.88;7404453;19;1483;-56
2022/07/23 01:59:27;;;;;;;;;;;;;;;23.69;48.23;100823.44;7406668;19;1627;-56
2022/07/23 02:01:56;;;;;;;;;;;;;;;23.75;48.25;100814.69;7393431;19;1853;-57
2022/07/23 02:04:28;;;;;;;;;;;;;;;23.72;48.32;100823.13;7403057;19;1752;-56
2022/07/23 02:06:56;;;;;;;;;;;;;;;23.71;48.22;100819.56;7406338;19;1773;-56
2022/07/23 02:09:25;;;;;;;;;;;;;;;23.78;48.07;100815.22;7405546;19;1558;-57
2022/07/23 02:11:53;;;;;;;;;;;;;;;23.78;48.07;100809.84;7403439;19;1625;-59
2022/07/23 02:14:24;;;;;;;;;;;;;;;23.80;48.28;100824.00;7405591;19;1691;-57
2022/07/23 02:16:53;;;;;;;;;;;;;;;23.77;48.33;100809.97;7404320;19;1561;-57
2022/07/23 02:19:21;;;;;;;;;;;;;;;23.75;48.35;100828.19;7405896;19;1503;-57
2022/07/23 02:21:49;;;;;;;;;;;;;;;23.78;48.03;100826.03;7402895;19;1853;-59
2022/07/23 02:24:18;;;;;;;;;;;;;;;23.72;48.24;100821.25;7406253;19;1534;-58
2022/07/23 02:26:46;;;;;;;;;;;;;;;23.70;48.01;100812.50;7404721;19;1529;-59
2022/07/23 02:29:14;;;;;;;;;;;;;;;23.70;48.17;100815.19;7405830;19;1535;-59
2022/07/23 02:31:46;;;;;;;;;;;;;;;23.74;47.97;100821.94;7405247;19;1716;-58
2022/07/23 02:34:14;;;;;;;;;;;;;;;23.74;48.20;100826.50;7402597;19;1422;-59
2022/07/23 02:36:43;;;;;;;;;;;;;;;23.73;48.36;100832.91;7403097;19;1388;-60
2022/07/23 02:39:11;;;;;;;;;;;;;;;23.74;48.18;100823.81;7403870;19;1603;-59
2022/07/23 02:41:39;;;;;;;;;;;;;;;23.70;48.21;100833.25;7404672;19;1863;-58
2022/07/23 02:44:08;;;;;;;;;;;;;;;23.68;48.36;100822.59;7406026;19;1609;-58
2022/07/23 02:46:36;;;;;;;;;;;;;;;23.67;48.28;100833.56;7405365;19;1730;-59
2022/07/23 02:49:07;;;;;;;;;;;;;;;23.68;48.25;100830.72;7403547;19;1550;-58
2022/07/23 02:51:36;;;;;;;;;;;;;;;23.65;48.37;100835.59;7402995;19;1633;-59
2022/07/23 02:54:04;;;;;;;;;;;;;;;23.63;48.16;100847.41;7405720;19;1538;-59
2022/07/23 02:56:32;;;;;;;;;;;;;;;23.41;48.71;100846.13;7405408;19;1526;-59
2022/07/23 02:59:01;;;;;;;;;;;;;;;23.24;48.88;100847.09;7404541;19;1735;-58
2022/07/23 03:01:29;;;;;;;;;;;;;;;23.37;48.53;100844.75;7402338;19;1849;-60
2022/07/23 03:03:57;;;;;;;;;;;;;;;23.53;48.46;100843.97;7405539;19;1561;-58
2022/07/23 03:06:28;;;;;;;;;;;;;;;23.45;48.04;100835.00;7404873;19;1625;-60
2022/07/23 03:08:57;;;;;;;;;;;;;;;23.40;48.10;100847.16;7405849;19;1051;-60
2022/07/23 03:11:25;;;;;;;;;;;;;;;23.52;48.23;100841.47;7405333;19;1593;-58
2022/07/23 03:13:53;;;;;;;;;;;;;;;23.55;48.16;100849.22;7404802;19;1695;-57
2022/07/23 03:16:22;;;;;;;;;;;;;;;23.58;47.93;100848.91;7404249;19;1648;-58
2022/07/23 03:18:50;;;;;;;;;;;;;;;23.55;48.22;100862.72;7404804;19;1613;-58
2022/07/23 03:21:18;;;;;;;;;;;;;;;23.50;48.18;100862.38;7403677;19;1861;-61
2022/07/23 03:23:49;;;;;;;;;;;;;;;23.51;48.24;100854.09;7405899;19;1033;-58
2022/07/23 03:26:18;;;;;;;;;;;;;;;23.49;48.64;100842.63;7404334;19;1780;-58
2022/07/23 03:28:46;;;;;;;;;;;;;;;23.57;48.52;100852.59;7403878;19;1653;-58
2022/07/23 03:31:14;;;;;;;;;;;;;;;23.55;48.15;100851.91;7402548;19;1624;-57
2022/07/23 03:33:43;;;;;;;;;;;;;;;23.48;48.11;100862.53;7404100;19;1555;-57
2022/07/23 03:36:11;;;;;;;;;;;;;;;23.54;48.52;100869.97;7403240;19;1690;-58
2022/07/23 03:38:40;;;;;;;;;;;;;;;23.55;47.98;100860.84;7405256;19;961;-58
2022/07/23 03:41:11;;;;;;;;;;;;;;;23.58;48.30;100867.81;7401806;19;1846;-58
2022/07/23 03:43:39;;;;;;;;;;;;;;;23.62;47.98;100866.47;7404091;19;1526;-57
2022/07/23 03:46:08;;;;;;;;;;;;;;;23.61;48.20;100857.50;7401825;19;1329;-57
2022/07/23 03:48:36;;;;;;;;;;;;;;;23.58;48.40;100865.09;7401702;19;1358;-59
2022/07/23 03:51:05;;;;;;;;;;;;;;;23.62;48.30;100858.38;7401564;19;1364;-59
2022/07/23 03:53:33;;;;;;;;;;;;;;;23.62;48.44;100861.06;7403432;19;1329;-57
2022/07/23 03:56:01;;;;;;;;;;;;;;;23.65;48.08;100867.97;7402272;19;1295;-57
2022/07/23 03:58:32;;;;;;;;;;;;;;;23.67;48.26;100885.69;7400375;19;1414;-59
2022/07/23 04:01:01;;;;;;;;;;;;;;;23.67;48.00;100871.38;7399739;19;1846;-57
2022/07/23 04:03:29;;;;;;;;;;;;;;;23.73;48.17;100873.41;7403857;19;1642;-59
2022/07/23 04:05:57;;;;;;;;;;;;;;;23.78;48.10;100873.81;7409798;19;1576;-57
2022/07/23 04:08:26;;;;;;;;;;;;;;;23.78;48.36;100866.53;7411862;19;980;-57
2022/07/23 04:10:54;;;;;;;;;;;;;;;23.75;47.96;100871.38;7409171;19;1798;-57
2022/07/23 04:13:23;;;;;;;;;;;;;;;23.79;48.20;100870.91;7410279;19;1283;-58
2022/07/23 04:15:54;;;;;;;;;;;;;;;23.84;48.06;100873.13;7409263;19;1279;-60
2022/07/23 04:18:23;;;;;;;;;;;;;;;23.85;48.17;100890.19;7409384;19;1370;-60
2022/07/23 04:20:53;;;;;;;;;;;;;;;23.87;47.84;100885.47;7410344;19;1382;-62
2022/07/23 04:23:22;;;;;;;;;;;;;;;23.87;47.97;100898.97;7407029;19;1854;-59
2022/07/23 04:25:50;;;;;;;;;;;;;;;23.86;47.96;100891.88;7409317;19;1378;-58
2022/07/23 04:28:18;;;;;;;;;;;;;;;23.85;48.30;100890.19;7409931;19;1383;-58
2022/07/23 04:30:47;;;;;;;;;;;;;;;23.83;48.20;100887.63;7409787;19;1533;-57
2022/07/23 04:33:19;;;;;;;;;;;;;;;23.94;48.31;100900.00;7409676;19;1518;-57
2022/07/23 04:35:47;;;;;;;;;;;;;;;23.97;48.27;100878.91;7410351;19;1613;-57
2022/07/23 04:38:15;;;;;;;;;;;;;;;24.02;47.97;100894.63;7409213;19;1680;-57
2022/07/23 04:40:44;;;;;;;;;;;;;;;23.96;47.84;100889.88;7409948;19;1592;-57
2022/07/23 04:43:12;;;;;;;;;;;;;;;23.97;47.67;100886.16;7407495;19;1904;-57
2022/07/23 04:45:41;;;;;;;;;;;;;;;24.01;47.93;100896.47;7407377;19;1240;-59
2022/07/23 04:48:09;;;;;;;;;;;;;;;24.05;47.73;100894.28;7405272;19;1480;-61
2022/07/23 04:50:40;;;;;;;;;;;;;;;24.13;47.93;100909.66;7407082;19;1684;-61
2022/07/23 04:53:08;;;;;;;;;;;;;;;24.17;47.34;100884.88;7405665;19;1311;-61
2022/07/23 04:55:37;;;;;;;;;;;;;;;24.20;47.53;100900.72;7407617;19;1411;-60
2022/07/23 04:58:05;;;;;;;;;;;;;;;24.25;47.64;100915.59;7404579;19;1458;-61
2022/07/23 05:00:33;;;;;;;;;;;;;;;24.27;47.65;100908.16;7407380;19;1355;-60
2022/07/23 05:03:02;;;;;;;;;;;;;;;24.18;47.66;100897.34;7405274;19;1853;-61
2022/07/23 05:05:30;;;;;;;;;;;;;;;24.31;47.39;100902.28;7405739;19;1556;-61
2022/07/23 05:08:01;;;;;;;;;;;;;;;24.35;47.73;100908.16;7405837;19;1321;-64
2022/07/23 05:10:29;;;;;;;;;;;;;;;24.36;47.63;100912.56;7405526;19;1376;-62
2022/07/23 05:12:58;;;;;;;;;;;;;;;24.43;47.55;100921.69;7406305;19;1338;-58
2022/07/23 05:15:26;;;;;;;;;;;;;;;24.42;47.70;100926.25;7406702;19;1406;-60
2022/07/23 05:17:55;;;;;;;;;;;;;;;24.44;47.50;100923.38;7405106;19;1272;-59
2022/07/23 05:20:23;;;;;;;;;;;;;;;24.49;47.69;100926.44;7406343;19;1343;-60
2022/07/23 05:22:51;;;;;;;;;;;;;;;24.52;47.92;100942.34;7403888;19;1859;-60
2022/07/23 05:25:23;;;;;;;;;;;;;;;24.56;47.96;100934.75;7406341;19;1084;-61
2022/07/23 05:27:51;;;;;;;;;;;;;;;24.56;47.82;100940.16;7406719;19;1290;-63
2022/07/23 05:30:20;;;;;;;;;;;;;;;24.57;47.80;100933.72;7399275;19;1280;-62
2022/07/23 05:32:48;;;;;;;;;;;;;;;24.65;47.91;100935.59;7405135;19;1224;-65
2022/07/23 05:35:17;;;;;;;;;;;;;;;24.65;48.03;100941.00;7405747;19;1365;-62
2022/07/23 05:37:45;;;;;;;;;;;;;;;24.64;48.25;100929.34;7407467;19;1607;-55
2022/07/23 05:40:14;;;;;;;;;;;;;;;24.63;48.45;100929.50;7407984;19;1033;-59
2022/07/23 05:42:45;;;;;;;;;;;;;;;24.69;48.38;100934.22;7405397;19;1848;-59
2022/07/23 05:45:13;;;;;;;;;;;;;;;24.65;48.22;100919.34;7405643;19;1535;-60
2022/07/23 05:47:42;;;;;;;;;;;;;;;24.63;48.85;100924.97;7406492;19;1536;-59
2022/07/23 05:50:11;;;;;;;;;;;;;;;24.64;48.54;100936.63;7406389;19;1532;-56
2022/07/23 05:52:40;;;;;;;;;;;;;;;24.66;48.82;100935.44;7405733;19;1600;-55
2022/07/23 05:55:08;;;;;;;;;;;;;;;24.65;49.07;100936.44;7407022;19;1041;-56
2022/07/23 05:57:37;;;;;;;;;;;;;;;24.69;48.62;100939.63;7405284;19;1664;-55
2022/07/23 06:00:09;;;;;;;;;;;;;;;24.68;48.62;100935.25;7405107;19;1360;-60
2022/07/23 06:02:37;;;;;;;;;;;;;;;24.67;48.47;100939.84;7403231;19;1871;-55
2022/07/23 06:05:07;;;;;;;;;;;;;;;24.67;48.86;100928.16;7404403;19;1334;-60
2022/07/23 06:07:35;;;;;;;;;;;;;;;24.68;48.83;100941.50;7407004;19;1410;-55
2022/07/23 06:10:04;;;;;;;;;;;;;;;24.70;48.84;100928.66;7407023;19;1302;-60
2022/07/23 06:12:32;;;;;;;;;;;;;;;24.65;49.03;100919.34;7405898;19;1254;-60
2022/07/23 06:15:00;;;;;;;;;;;;;;;24.66;48.93;100932.72;7405572;19;1377;-56
2022/07/23 06:17:31;;;;;;;;;;;;;;;24.65;49.41;100920.22;7406119;19;1354;-55
2022/07/23 06:20:00;;;;;;;;;;;;;;;24.70;49.18;100923.25;7404274;19;1465;-55
2022/07/23 06:22:28;;;;;;;;;;;;;;;24.71;49.35;100924.09;7403519;19;1857;-55
2022/07/23 06:24:56;;;;;;;;;;;;;;;24.72;49.23;100913.09;7406364;19;1314;-55
2022/07/23 06:27:25;;;;;;;;;;;;;;;24.75;49.32;100915.50;7398769;19;1258;-59
2022/07/23 06:29:53;;;;;;;;;;;;;;;24.76;49.25;100922.56;7403017;19;1335;-55
2022/07/23 06:32:21;;;;;;;;;;;;;;;24.79;49.12;100927.66;7405677;19;1358;-60
2022/07/23 06:34:52;;;;;;;;;;;;;;;24.81;49.19;100930.19;7405185;19;1533;-55
2022/07/23 06:37:21;;;;;;;;;;;;;;;24.78;49.43;100930.53;7405888;19;1039;-54
2022/07/23 06:39:49;;;;;;;;;;;;;;;24.69;50.55;100926.13;7403880;19;1417;-55
2022/07/23 06:42:17;;;;;;;;;;;;;;;24.72;50.87;100925.78;7401988;19;1860;-60
2022/07/23 06:44:46;;;;;;;;;;;;;;;24.72;50.84;100923.09;7405053;19;1407;-60
2022/07/23 06:47:14;;;;;;;;;;;;;;;24.79;50.57;100926.81;7404357;19;1382;-60
2022/07/23 06:49:43;;;;;;;;;;;;;;;24.78;50.75;100925.13;7404031;19;1249;-55
2022/07/23 06:52:14;;;;;;;;;;;;;;;24.82;50.65;100937.28;7402290;19;1225;-58
2022/07/23 06:54:42;;;;;;;;;;;;;;;24.87;50.66;100917.81;7403490;19;1121;-57
2022/07/23 06:57:11;;;;;;;;;;;;;;;24.83;51.26;100928.16;7402432;19;1427;-60
2022/07/23 06:59:40;;;;;;;;;;;;;;;24.83;51.36;100922.75;7402999;19;1268;-60
2022/07/23 07:02:08;;;;;;;;;;;;;;;24.85;51.29;100923.44;7400003;19;1860;-55
2022/07/23 07:04:36;;;;;;;;;;;;;;;24.89;51.47;100927.47;7403579;19;1315;-59
2022/07/23 07:07:05;;;;;;;;;;;;;;;24.88;51.49;100925.78;7402340;19;1696;-55
2022/07/23 07:09:37;;;;;;;;;;;;;;;24.88;51.54;100942.00;7401434;19;1371;-55
2022/07/23 07:12:06;;;;;;;;;;;;;;;24.88;51.88;100933.06;7402390;19;1314;-58
2022/07/23 07:14:34;;;;;;;;;;;;;;;24.84;52.84;100945.22;7403590;19;1398;-57
2022/07/23 07:17:03;;;;;;;;;;;;;;;24.79;52.56;100932.22;7402448;19;1407;-57
2022/07/23 07:19:31;;;;;;;;;;;;;;;24.83;52.56;100948.94;7404310;19;1189;-55
2022/07/23 07:21:59;;;;;;;;;;;;;;;24.81;52.32;100932.91;7402650;19;1708;-55
2022/07/23 07:24:28;;;;;;;;;;;;;;;24.81;51.96;100927.50;7402359;19;1851;-55
2022/07/23 07:26:59;;;;;;;;;;;;;;;24.82;52.10;100931.88;7401564;19;1699;-55
2022/07/23 07:29:28;;;;;;;;;;;;;;;24.87;51.93;100937.63;7400867;19;1302;-60
2022/07/23 07:31:56;;;;;;;;;;;;;;;24.88;52.41;100938.47;7402941;19;1491;-57
2022/07/23 07:34:24;;;;;;;;;;;;;;;24.86;52.67;100924.25;7403319;19;1231;-60
2022/07/23 07:36:53;;;;;;;;;;;;;;;24.89;52.21;100929.31;7402080;19;1425;-60
2022/07/23 07:39:21;;;;;;;;;;;;;;;24.93;52.40;100922.53;7408294;19;1303;-61
2022/07/23 07:41:50;;;;;;;;;;;;;;;24.92;52.78;100918.16;7410459;19;1381;-61
2022/07/23 07:44:21;;;;;;;;;;;;;;;24.91;53.22;100921.88;7407508;19;1841;-55
2022/07/23 07:46:49;;;;;;;;;;;;;;;24.91;52.71;100920.03;7409880;19;1208;-56
2022/07/23 07:49:19;;;;;;;;;;;;;;;24.93;54.07;100915.31;7407951;19;1750;-64
2022/07/23 07:51:47;;;;;;;;;;;;;;;24.93;53.35;100917.13;7410553;19;1525;-57
2022/07/23 07:54:15;;;;;;;;;;;;;;;24.95;53.03;100910.56;7407093;19;1589;-56
2022/07/23 07:56:44;;;;;;;;;;;;;;;24.91;53.09;100906.50;7407312;19;1556;-56
2022/07/23 07:59:14;;;;;;;;;;;;;;;24.88;53.29;100901.44;7408554;19;1216;-57
2022/07/23 08:01:45;;;;;;;;;;;;;;;24.84;53.53;100902.78;7408252;19;1348;-56
2022/07/23 08:04:13;;;;;;;;;;;;;;;24.90;53.52;100901.25;7408714;19;1855;-61
2022/07/23 08:06:42;;;;;;;;;;;;;;;24.90;53.42;100901.25;7408440;19;1743;-61
2022/07/23 08:09:10;;;;;;;;;;;;;;;24.90;53.44;100909.38;7410935;19;1612;-61
2022/07/23 08:11:39;;;;;;;;;;;;;;;24.86;53.08;100906.16;7411100;19;1271;-61
2022/07/23 08:14:08;;;;;;;;;;;;;;;24.89;53.06;100902.25;7410206;19;1368;-56
2022/07/23 08:16:37;;;;;;;;;;;;;;;24.87;53.27;100902.47;7408734;19;1272;-57
2022/07/23 08:19:08;;;;;;;;;;;;;;;24.90;53.27;100891.28;7406944;19;1608;-57
2022/07/23 08:21:36;;;;;;;;;;;;;;;24.88;53.19;100887.91;7408293;19;1582;-57
2022/07/23 08:24:04;;;;;;;;;;;;;;;24.89;53.29;100894.16;7407168;19;1853;-61
2022/07/23 08:26:33;;;;;;;;;;;;;;;24.89;53.15;100895.03;7407991;19;1770;-61
2022/07/23 08:29:01;;;;;;;;;;;;;;;24.90;53.33;100890.44;7408964;19;1561;-61
2022/07/23 08:31:30;;;;;;;;;;;;;;;24.90;53.35;100891.28;7408668;19;1589;-61
2022/07/23 08:33:58;;;;;;;;;;;;;;;24.88;52.96;100879.78;7410354;19;1294;-61
2022/07/23 08:36:31;;;;;;;;;;;;;;;24.86;53.44;100889.94;7409346;19;1628;-61
2022/07/23 08:39:02;;;;;;;;;;;;;;;24.84;53.35;100877.59;7410260;19;1620;-61
2022/07/23 08:41:30;;;;;;;;;;;;;;;24.88;53.20;100884.38;7408657;19;1205;-61
2022/07/23 08:44:00;;;;;;;;;;;;;;;24.90;53.23;100880.47;7408329;19;1858;-57
2022/07/23 08:46:29;;;;;;;;;;;;;;;24.90;53.02;100888.56;7408025;19;1730;-56
2022/07/23 08:48:57;;;;;;;;;;;;;;;24.88;52.99;100874.38;7409372;19;1522;-57
2022/07/23 08:51:30;;;;;;;;;;;;;;;24.91;53.29;100865.94;7407987;19;1644;-61
2022/07/23 08:53:59;;;;;;;;;;;;;;;24.92;53.13;100877.59;7409466;19;1629;-56
2022/07/23 08:56:27;;;;;;;;;;;;;;;24.94;53.07;100880.97;7408649;19;1631;-61
2022/07/23 08:58:56;;;;;;;;;;;;;;;24.90;53.34;100880.47;7410202;19;1628;-56
2022/07/23 09:01:24;;;;;;;;;;;;;;;24.93;53.02;100874.72;7405579;19;1585;-56
2022/07/23 09:03:52;;;;;;;;;;;;;;;24.88;53.20;100879.78;7408543;19;1845;-61
2022/07/23 09:06:21;;;;;;;;;;;;;;;24.86;53.26;100852.06;7407838;19;1615;-56
2022/07/23 09:08:52;;;;;;;;;;;;;;;24.90;53.32;100856.13;7409810;19;1534;-61
2022/07/23 09:11:21;;;;;;;;;;;;;;;24.89;53.13;100867.09;7408288;19;1640;-56
2022/07/23 09:13:51;;;;;;;;;;;;;;;24.92;53.20;100872.19;7409081;19;1360;-61
2022/07/23 09:16:21;;;;;;;;;;;;;;;24.94;53.17;100867.44;7408585;19;1546;-57
2022/07/23 09:18:50;;;;;;;;;;;;;;;24.96;53.07;100863.53;7408405;19;1542;-56
2022/07/23 09:21:23;;;;;;;;;;;;;;;24.87;53.15;100858.31;7407731;19;1360;-61
2022/07/23 09:23:58;;;;;;;;;;;;;;;24.89;53.30;100848.16;7407207;19;1856;-61
2022/07/23 09:26:37;;;;;;;;;;;;;;;24.84;53.33;100854.09;7407909;19;1775;-56
2022/07/23 09:29:07;;;;;;;;;;;;;;;24.84;53.54;100854.09;7408121;19;1291;-61
2022/07/23 09:31:36;;;;;;;;;;;;;;;24.85;53.51;100861.22;7408728;19;1527;-57
2022/07/23 09:34:09;;;;;;;;;;;;;;;24.86;53.42;100862.06;7408913;19;1581;-61
2022/07/23 09:36:38;;;;;;;;;;;;;;;24.85;53.39;100852.22;7408113;19;1566;-61
2022/07/23 09:39:09;;;;;;;;;;;;;;;24.87;53.34;100848.38;7408352;19;1612;-57
2022/07/23 09:41:39;;;;;;;;;;;;;;;24.89;53.23;100856.28;7407803;19;1621;-61
2022/07/23 09:44:12;;;;;;;;;;;;;;;24.87;53.46;100836.69;7406105;19;1851;-61
2022/07/23 09:46:43;;;;;;;;;;;;;;;24.91;53.31;100847.00;7408510;19;1550;-61
2022/07/23 09:49:21;;;;;;;;;;;;;;;24.89;53.57;100834.63;7405917;19;1546;-57
2022/07/23 09:51:54;;;;;;;;;;;;;;;24.93;53.58;100847.66;7406438;19;1514;-61
2022/07/23 09:54:28;;;;;;;;;;;;;;;24.88;53.26;100839.22;7407945;19;1533;-56
2022/07/23 09:56:56;;;;;;;;;;;;;;;24.89;53.29;100837.34;7406833;19;1561;-62
2022/07/23 09:59:26;;;;;;;;;;;;;;;24.88;53.58;100838.38;7407553;19;1612;-61
2022/07/23 10:01:56;;;;;;;;;;;;;;;24.89;53.28;100834.63;7404810;19;1792;-56
2022/07/23 10:04:25;;;;;;;;;;;;;;;24.86;53.21;100821.47;7406342;19;1849;-57
2022/07/23 10:06:54;;;;;;;;;;;;;;;24.91;53.51;100822.66;7406641;19;1677;-60
2022/07/23 10:09:27;;;;;;;;;;;;;;;24.89;53.59;100813.88;7407659;19;1623;-61
2022/07/23 10:11:59;;;;;;;;;;;;;;;24.89;53.59;100805.75;7406453;19;1574;-61
2022/07/23 10:14:31;;;;;;;;;;;;;;;24.91;53.48;100805.56;7406372;19;1570;-57
2022/07/23 10:17:00;;;;;;;;;;;;;;;24.92;53.35;100818.91;7406819;19;1375;-57
2022/07/23 10:19:28;;;;;;;;;;;;;;;24.90;53.51;100798.47;7405524;19;1558;-62
2022/07/23 10:21:58;;;;;;;;;;;;;;;24.91;53.58;100806.41;7404903;19;1582;-57
2022/07/23 10:24:33;;;;;;;;;;;;;;;24.92;53.49;100818.91;7404995;19;1850;-57
2022/07/23 10:27:07;;;;;;;;;;;;;;;24.93;53.58;100804.38;7404942;19;1802;-57
2022/07/23 10:29:41;;;;;;;;;;;;;;;24.89;53.36;100805.75;7405588;19;1636;-61
2022/07/23 10:32:11;;;;;;;;;;;;;;;24.91;53.69;100795.59;7406011;19;1608;-57
2022/07/23 10:34:46;;;;;;;;;;;;;;;24.95;53.37;100817.75;7405006;19;1538;-56
2022/07/23 10:37:18;;;;;;;;;;;;;;;24.98;53.50;100798.44;7404694;19;1574;-57
2022/07/23 10:39:49;;;;;;;;;;;;;;;24.93;53.71;100782.75;7405608;19;1615;-56
2022/07/23 10:42:18;;;;;;;;;;;;;;;24.91;53.54;100798.31;7405314;19;1523;-61
2022/07/23 10:44:47;;;;;;;;;;;;;;;24.90;53.54;100777.66;7404290;19;1862;-61
2022/07/23 10:50:19;;;;;;;;;;;;;;;24.88;53.79;100778.88;7403450;19;2362;-57
2022/07/23 10:53:03;;;;;;;;;;;;;;;24.89;53.62;100759.78;7404564;19;1586;-61
2022/07/23 10:55:46;;;;;;;;;;;;;;;24.90;53.48;100780.38;7402075;19;1861;-61
2022/07/23 10:58:20;;;;;;;;;;;;;;;24.89;53.59;100757.06;7402197;19;1798;-61
2022/07/23 11:00:48;;;;;;;;;;;;;;;24.91;53.71;100768.56;7404672;19;1616;-57
2022/07/23 11:03:32;;;;;;;;;;;;;;;24.91;53.53;100768.56;7405437;19;1660;-57
2022/07/23 11:06:00;;;;;;;;;;;;;;;24.95;53.61;100763.63;7405451;19;1618;-57
2022/07/23 11:08:29;;;;;;;;;;;;;;;24.92;53.44;100756.69;7406052;19;1561;-57
2022/07/23 11:10:58;;;;;;;;;;;;;;;24.97;53.50;100756.19;7403183;19;1396;-61
2022/07/23 11:13:39;;;;;;;;;;;;;;;24.89;53.61;100746.25;7403316;19;1692;-61
2022/07/23 11:16:10;;;;;;;;;;;;;;;24.90;53.79;100755.19;7404359;19;1751;-57
2022/07/23 11:18:53;;;;;;;;;;;;;;;24.92;53.80;100748.59;7403933;19;1279;-61
2022/07/23 11:21:37;;;;;;;;;;;;;;;24.92;53.64;100739.63;7404284;19;1217;-56
2022/07/23 11:24:07;;;;;;;;;;;;;;;24.94;53.97;100740.28;7404245;19;1865;-61
2022/07/23 11:26:49;;;;;;;;;;;;;;;24.89;53.81;100748.09;7404229;19;1526;-57
2022/07/23 11:29:33;;;;;;;;;;;;;;;24.96;53.83;100743.66;7403679;19;1333;-61
2022/07/23 11:32:06;;;;;;;;;;;;;;;24.92;54.01;100737.75;7404652;19;1543;-57
2022/07/23 11:34:34;;;;;;;;;;;;;;;24.92;53.80;100735.06;7403854;19;1708;-56
2022/07/23 11:37:03;;;;;;;;;;;;;;;24.91;53.75;100741.50;7404158;19;1549;-57
2022/07/23 11:39:32;;;;;;;;;;;;;;;24.94;53.67;100727.59;7405310;19;1541;-56
2022/07/23 11:42:01;;;;;;;;;;;;;;;24.93;53.96;100727.78;7403835;19;1524;-61
2022/07/23 11:44:30;;;;;;;;;;;;;;;24.93;53.68;100717.81;7403020;19;1860;-57
2022/07/23 11:46:59;;;;;;;;;;;;;;;24.93;53.91;100715.13;7404696;19;1633;-61
2022/07/23 11:49:30;;;;;;;;;;;;;;;24.93;54.04;100716.94;7402509;19;1546;-57
2022/07/23 11:52:06;;;;;;;;;;;;;;;24.94;53.84;100726.78;7402386;19;1648;-61
2022/07/23 11:54:35;;;;;;;;;;;;;;;24.95;53.92;100718.50;7403965;19;980;-57
2022/07/23 11:57:04;;;;;;;;;;;;;;;24.92;53.66;100710.72;7401512;19;1462;-56
2022/07/23 11:59:34;;;;;;;;;;;;;;;24.97;54.02;100719.16;7403706;19;1348;-61
2022/07/23 12:02:04;;;;;;;;;;;;;;;24.94;53.84;100711.38;7401502;19;1588;-56
2022/07/23 12:04:42;;;;;;;;;;;;;;;25.01;53.66;100717.78;7403159;19;1849;-61
2022/07/23 12:07:25;;;;;;;;;;;;;;;24.95;53.63;100710.38;7402878;19;1573;-61
2022/07/23 12:09:53;;;;;;;;;;;;;;;24.93;53.93;100707.00;7402713;19;1594;-62
2022/07/23 12:12:22;;;;;;;;;;;;;;;24.95;53.81;100712.25;7402803;19;1637;-61
2022/07/23 12:14:51;;;;;;;;;;;;;;;24.99;53.89;100714.41;7403005;19;1265;-56
2022/07/23 12:17:19;;;;;;;;;;;;;;;24.95;53.91;100704.97;7403159;19;1506;-56
2022/07/23 12:19:51;;;;;;;;;;;;;;;24.94;54.12;100697.00;7402247;19;1353;-56
2022/07/23 12:22:19;;;;;;;;;;;;;;;24.97;53.84;100702.91;7401969;19;1627;-61
2022/07/23 12:24:57;;;;;;;;;;;;;;;24.96;53.91;100690.41;7401938;19;1864;-61
2022/07/23 12:27:26;;;;;;;;;;;;;;;24.92;53.67;100699.88;7409411;19;1406;-61
2022/07/23 12:29:55;;;;;;;;;;;;;;;24.95;53.93;100691.44;7409125;19;1361;-57
2022/07/23 12:32:24;;;;;;;;;;;;;;;24.93;54.11;100692.59;7410724;19;1360;-61
2022/07/23 12:35:05;;;;;;;;;;;;;;;24.93;53.98;100690.78;7409451;19;1680;-57
2022/07/23 12:37:34;;;;;;;;;;;;;;;24.95;54.16;100696.00;7409732;19;1867;-57
2022/07/23 12:40:17;;;;;;;;;;;;;;;24.99;53.87;100698.19;7410159;19;1551;-57
2022/07/23 12:42:45;;;;;;;;;;;;;;;25.00;53.71;100699.84;7409956;19;1542;-57
2022/07/23 12:45:14;;;;;;;;;;;;;;;24.94;53.82;100680.78;7408557;19;1851;-61
2022/07/23 12:47:58;;;;;;;;;;;;;;;24.95;54.16;100688.72;7409165;19;1486;-61
2022/07/23 12:50:45;;;;;;;;;;;;;;;25.02;54.02;100695.09;7410053;19;1431;-57
2022/07/23 12:53:15;;;;;;;;;;;;;;;24.95;53.86;100675.19;7409915;19;1680;-57
2022/07/23 12:55:45;;;;;;;;;;;;;;;24.96;53.80;100671.47;7408811;19;1782;-57
2022/07/23 12:58:16;;;;;;;;;;;;;;;25.01;54.09;100676.38;7406470;19;1779;-61
2022/07/23 13:00:57;;;;;;;;;;;;;;;24.99;53.95;100668.41;7408513;19;1541;-57
2022/07/23 13:03:30;;;;;;;;;;;;;;;25.01;53.93;100677.19;7408122;19;1303;-61
2022/07/23 13:06:02;;;;;;;;;;;;;;;25.02;54.18;100672.63;7407613;19;1866;-62